Overview Statistics Trail Chart Weather Telemetry Raw packets
 

This is the latest recevied weather packets stored in our database for station/object KQ7A. If no packets are shown the sender has not sent any weather packets the latest 10 day(s).

<< 59 60 61 62 63 64 65 >>
Time Temp. Humidity Pressure Rain* Wind** Luminosity Snow
1788273470 17.78° C 32% 1016 hPa 0 mm - 50 W/m² -
1788273167 16.67° C 35% 1015.9 hPa 0 mm - 46 W/m² -
1788272863 16.11° C 37% 1015.9 hPa 0 mm - 42 W/m² -
1788272561 15.56° C 37% 1015.9 hPa 0 mm - 32 W/m² -
1788272256 15.56° C 36% 1015.8 hPa 0 mm - 29 W/m² -
1788271951 15.56° C 35% 1015.9 hPa 0 mm - 26 W/m² -
1788271650 13.33° C 35% 1015.6 hPa 0 mm - 23 W/m² -
1788271348 12.78° C 42% 1015.6 hPa 0 mm - 21 W/m² -
1788271043 12.78° C 38% 1015.6 hPa 0 mm - 18 W/m² -
1788270738 11.67° C 40% 1015.8 hPa 0 mm - 15 W/m² -
1788270434 11.67° C 43% 1015.5 hPa 0 mm - 12 W/m² -
1788270129 11.11° C 42% 1015.6 hPa 0 mm - 8 W/m² -
1788269829 10.56° C 45% 1015.5 hPa 0 mm - 4 W/m² -
1788269528 11.11° C 42% 1015.4 hPa 0 mm - 2 W/m² -
1788269227 11.11° C 41% 1015.3 hPa 0 mm - 1 W/m² -
1788268927 11.67° C 41% 1015.4 hPa 0 mm - 0 W/m² -
1788268627 11.67° C 41% 1015.4 hPa 0 mm - 0 W/m² -
1788268321 12.78° C 38% 1015.3 hPa 0 mm - 0 W/m² -
1788268016 12.22° C 38% 1015 hPa 0 mm - 0 W/m² -
1788267715 11.11° C 42% 1015.2 hPa 0 mm - 0 W/m² -
1788267412 12.78° C 38% 1015.2 hPa 0 mm - 0 W/m² -
1788267108 12.78° C 37% 1015.2 hPa 0 mm - 0 W/m² -
1788266803 12.78° C 40% 1015.2 hPa 0 mm - 0 W/m² -
1788266497 12.78° C 39% 1015.1 hPa 0 mm - 0 W/m² -
1788266192 12.22° C 41% 1015.3 hPa 0 mm - 0 W/m² -

* Rain latest hour (hover to see other rain measurements)
** Current wind speed in m/s (hover to see current wind gust speed)